createdAt,value
2018-12-16T00:02:09.584Z,13.20
2018-12-16T00:04:36.020Z,13.20
2018-12-16T00:07:02.445Z,13.20
2018-12-16T00:09:29.319Z,13.30
2018-12-16T00:11:55.747Z,13.30
2018-12-16T00:14:22.152Z,13.30
2018-12-16T00:19:23.239Z,13.30
2018-12-16T00:21:49.651Z,13.30
2018-12-16T00:24:17.326Z,13.20
2018-12-16T00:26:43.746Z,13.20
2018-12-16T00:29:11.006Z,13.20
2018-12-16T00:31:37.861Z,13.20
2018-12-16T00:34:04.275Z,13.20
2018-12-16T00:39:03.092Z,13.20
2018-12-16T00:41:29.324Z,13.20
2018-12-16T00:46:27.946Z,13.20
2018-12-16T00:51:25.895Z,13.20
2018-12-16T00:53:52.341Z,13.20
2018-12-16T01:01:21.680Z,13.10
2018-12-16T01:03:48.135Z,13.10
2018-12-16T01:06:17.410Z,13.10
2018-12-16T01:08:43.840Z,13.10
2018-12-16T01:13:41.820Z,13.20
2018-12-16T01:16:08.240Z,13.10
2018-12-16T01:18:35.656Z,13.10
2018-12-16T01:23:33.700Z,13.10
2018-12-16T01:26:00.133Z,13.10
2018-12-16T01:28:26.548Z,13.10
2018-12-16T01:33:25.767Z,13.10
2018-12-16T01:35:53.209Z,13.10
2018-12-16T01:40:52.454Z,13.00
2018-12-16T01:43:18.891Z,13.10
2018-12-16T01:50:49.025Z,13.10
2018-12-16T01:53:15.455Z,13.00
2018-12-16T01:55:41.708Z,13.00
2018-12-16T01:58:08.115Z,13.10
2018-12-16T02:05:37.859Z,13.00
2018-12-16T02:08:04.309Z,13.00
2018-12-16T02:10:30.718Z,13.00
2018-12-16T02:12:57.166Z,13.00
2018-12-16T02:15:23.610Z,13.10
2018-12-16T02:17:50.032Z,13.00
2018-12-16T02:20:16.467Z,13.00
2018-12-16T02:22:42.882Z,13.00
2018-12-16T02:32:47.279Z,13.00
2018-12-16T02:35:13.724Z,13.00
2018-12-16T02:37:40.151Z,13.00
2018-12-16T02:47:42.482Z,13.00
2018-12-16T02:52:40.235Z,13.00
2018-12-16T03:07:46.266Z,12.90
2018-12-16T03:12:44.270Z,12.90
2018-12-16T03:25:17.510Z,12.90
2018-12-16T03:30:15.950Z,13.00
2018-12-16T03:37:45.463Z,12.90
2018-12-16T03:50:18.505Z,13.00
2018-12-16T03:55:17.333Z,12.90
2018-12-16T04:05:18.193Z,12.90
2018-12-16T04:12:48.559Z,12.90
2018-12-16T04:17:47.302Z,12.80
2018-12-16T04:20:13.599Z,12.90
2018-12-16T04:22:40.041Z,12.90
2018-12-16T04:25:11.380Z,12.90
2018-12-16T04:27:37.796Z,12.90
2018-12-16T04:32:36.319Z,12.90
2018-12-16T05:00:20.017Z,12.80
2018-12-16T05:12:53.716Z,12.90
2018-12-16T05:20:23.103Z,12.90
2018-12-16T05:22:49.491Z,12.80
2018-12-16T05:25:15.890Z,12.90
2018-12-16T05:27:42.373Z,12.90
2018-12-16T05:30:08.731Z,12.90
2018-12-16T05:32:34.998Z,12.90
2018-12-16T05:35:01.428Z,12.90
2018-12-16T05:37:27.680Z,12.90
2018-12-16T05:39:53.914Z,12.90
2018-12-16T05:42:23.571Z,12.90
2018-12-16T05:44:53.494Z,12.90
2018-12-16T05:47:19.924Z,12.90
2018-12-16T05:49:46.351Z,12.90
2018-12-16T05:54:44.740Z,12.90
2018-12-16T05:57:11.244Z,12.90
2018-12-16T05:59:37.599Z,12.90
2018-12-16T06:02:03.835Z,12.90
2018-12-16T06:04:35.412Z,12.90
2018-12-16T06:07:01.823Z,12.90
2018-12-16T06:09:28.876Z,12.90
2018-12-16T06:14:27.020Z,12.90
2018-12-16T06:16:59.369Z,12.90
2018-12-16T06:19:25.616Z,12.80
2018-12-16T06:24:24.262Z,12.80
2018-12-16T06:26:53.570Z,12.80
2018-12-16T06:31:52.566Z,12.80
2018-12-16T06:34:19.007Z,12.80
2018-12-16T06:39:18.249Z,12.80
2018-12-16T06:41:44.684Z,12.90
2018-12-16T06:44:11.086Z,12.80
2018-12-16T06:46:37.514Z,12.80
2018-12-16T06:49:03.954Z,12.70
2018-12-16T06:51:33.585Z,12.80
2018-12-16T06:54:02.637Z,12.90
2018-12-16T06:56:27.656Z,12.90
2018-12-16T06:58:54.815Z,12.80
2018-12-16T07:01:21.254Z,12.80
2018-12-16T07:06:20.044Z,12.90
2018-12-16T07:08:46.457Z,12.80
2018-12-16T07:13:44.416Z,12.80
2018-12-16T07:18:42.484Z,12.00
2018-12-16T07:23:40.872Z,11.70
2018-12-16T07:26:07.300Z,11.80
2018-12-16T07:28:33.713Z,12.00
2018-12-16T07:31:00.134Z,12.30
2018-12-16T07:35:58.735Z,12.70
2018-12-16T07:40:57.922Z,13.00
2018-12-16T07:43:24.180Z,13.20
2018-12-16T07:48:22.344Z,13.30
2018-12-16T07:50:48.580Z,13.50
2018-12-16T07:55:46.718Z,13.60
2018-12-16T07:58:13.033Z,13.70
2018-12-16T08:05:44.413Z,13.90
2018-12-16T08:10:42.512Z,14.00
2018-12-16T08:13:09.619Z,14.00
2018-12-16T08:18:08.041Z,14.10
2018-12-16T08:20:34.467Z,14.20
2018-12-16T08:23:00.889Z,14.20
2018-12-16T08:35:34.575Z,14.40
2018-12-16T08:48:11.544Z,14.50
2018-12-16T08:58:17.559Z,14.70
2018-12-16T09:03:15.298Z,14.80
2018-12-16T09:08:17.585Z,14.90
2018-12-16T09:10:47.561Z,14.90
2018-12-16T09:13:13.926Z,14.80
2018-12-16T09:15:41.611Z,14.90
2018-12-16T09:18:08.024Z,14.90
2018-12-16T09:23:06.688Z,14.90
2018-12-16T09:33:08.761Z,15.10
2018-12-16T09:35:35.558Z,15.20
2018-12-16T09:43:04.937Z,15.30
2018-12-16T09:45:31.389Z,15.30
2018-12-16T09:47:57.795Z,15.30
2018-12-16T09:55:27.773Z,15.40
2018-12-16T10:00:26.144Z,15.50
2018-12-16T10:02:52.601Z,15.50
2018-12-16T10:10:21.945Z,15.50
2018-12-16T10:12:48.939Z,15.60
2018-12-16T10:20:19.531Z,15.60
2018-12-16T10:25:17.578Z,15.60
2018-12-16T10:27:43.930Z,15.60
2018-12-16T10:32:41.735Z,15.60
2018-12-16T10:37:39.913Z,15.70
2018-12-16T10:40:06.369Z,15.70
2018-12-16T10:42:32.796Z,15.70
2018-12-16T10:44:59.228Z,15.60
2018-12-16T10:57:33.925Z,15.70
2018-12-16T11:05:03.436Z,15.80
2018-12-16T11:07:30.390Z,15.80
2018-12-16T11:09:57.537Z,15.80
2018-12-16T11:12:23.985Z,15.80
2018-12-16T11:14:50.499Z,15.90
2018-12-16T11:17:16.842Z,15.80
2018-12-16T11:19:43.255Z,15.90
2018-12-16T11:27:13.437Z,15.90
2018-12-16T11:29:39.866Z,16.00
2018-12-16T11:32:06.295Z,16.00
2018-12-16T11:34:32.714Z,16.00
2018-12-16T11:36:59.161Z,16.00
2018-12-16T11:44:28.895Z,16.00
2018-12-16T11:49:27.900Z,16.00
2018-12-16T11:54:26.915Z,16.00
2018-12-16T11:56:53.351Z,16.10
2018-12-16T11:59:19.821Z,16.10
2018-12-16T12:01:46.209Z,16.10
2018-12-16T12:09:16.396Z,16.10
2018-12-16T12:11:42.804Z,16.20
2018-12-16T12:14:09.233Z,16.20
2018-12-16T12:16:35.710Z,16.20
2018-12-16T12:19:02.148Z,16.10
2018-12-16T12:21:28.543Z,16.20
2018-12-16T12:23:54.980Z,16.20
2018-12-16T12:26:21.425Z,16.20
2018-12-16T12:28:47.832Z,16.20
2018-12-16T12:33:47.273Z,16.20
2018-12-16T12:36:13.715Z,16.20
2018-12-16T12:38:40.152Z,16.30
2018-12-16T12:41:06.575Z,16.30
2018-12-16T12:43:32.987Z,16.30
2018-12-16T12:45:59.624Z,16.30
2018-12-16T12:48:25.883Z,16.30
2018-12-16T12:53:25.313Z,16.40
2018-12-16T12:55:51.740Z,16.30
2018-12-16T12:58:18.183Z,16.40
2018-12-16T13:00:44.568Z,16.30
2018-12-16T13:03:10.996Z,16.40
2018-12-16T13:05:41.762Z,16.50
2018-12-16T13:08:08.174Z,16.40
2018-12-16T13:10:34.678Z,16.40
2018-12-16T13:13:01.084Z,16.50
2018-12-16T13:15:27.517Z,16.50
2018-12-16T13:17:53.950Z,16.50
2018-12-16T13:20:23.825Z,16.50
2018-12-16T13:22:53.732Z,16.50
2018-12-16T13:27:51.761Z,16.50
2018-12-16T13:30:18.167Z,16.50
2018-12-16T13:37:47.704Z,16.50
2018-12-16T13:40:14.144Z,16.50
2018-12-16T13:45:13.400Z,16.60
2018-12-16T13:47:39.788Z,16.60
2018-12-16T13:50:06.277Z,16.60
2018-12-16T13:52:32.622Z,16.60
2018-12-16T13:54:58.913Z,16.70
2018-12-16T13:57:29.814Z,16.60
2018-12-16T13:59:56.278Z,16.60
2018-12-16T14:04:54.832Z,16.60
2018-12-16T14:07:23.748Z,16.60
2018-12-16T14:09:50.182Z,16.60
2018-12-16T14:12:16.607Z,16.60
2018-12-16T14:14:43.020Z,16.70
2018-12-16T14:17:09.248Z,16.60
2018-12-16T14:19:35.465Z,16.80
2018-12-16T14:22:01.714Z,16.60
2018-12-16T14:24:29.806Z,16.70
2018-12-16T14:26:56.061Z,16.60
2018-12-16T14:29:22.299Z,16.80
2018-12-16T14:31:48.680Z,16.80
2018-12-16T14:34:17.804Z,16.70
2018-12-16T14:36:47.951Z,16.80
2018-12-16T14:49:20.768Z,16.80
2018-12-16T14:51:47.021Z,16.80
2018-12-16T14:54:17.944Z,16.80
2018-12-16T14:56:44.937Z,16.90
2018-12-16T15:01:43.458Z,16.90
2018-12-16T15:04:09.820Z,16.90
2018-12-16T15:06:36.243Z,16.90
2018-12-16T15:09:02.715Z,16.80
2018-12-16T15:11:29.939Z,16.90
2018-12-16T15:13:56.348Z,16.80
2018-12-16T15:16:22.773Z,16.90
2018-12-16T15:18:49.268Z,16.90
2018-12-16T15:21:15.642Z,17.00
2018-12-16T15:26:14.072Z,16.90
2018-12-16T15:28:40.480Z,16.90
2018-12-16T15:31:06.932Z,16.90
2018-12-16T15:33:33.341Z,16.90
2018-12-16T15:35:59.788Z,16.90
2018-12-16T15:38:26.219Z,16.90
2018-12-16T15:40:53.872Z,16.90
2018-12-16T15:43:20.343Z,16.90
2018-12-16T15:45:46.798Z,17.00
2018-12-16T15:48:13.205Z,17.00
2018-12-16T15:50:39.611Z,17.00
2018-12-16T15:53:06.079Z,17.10
2018-12-16T15:55:32.486Z,17.10
2018-12-16T15:57:58.912Z,17.10
2018-12-16T16:00:25.342Z,17.10
2018-12-16T16:02:53.883Z,17.20
2018-12-16T16:05:23.943Z,17.10
2018-12-16T16:07:50.399Z,17.20
2018-12-16T16:10:16.816Z,17.20
2018-12-16T16:12:43.258Z,17.20
2018-12-16T16:15:12.611Z,17.20
2018-12-16T16:17:38.963Z,17.30
2018-12-16T16:20:05.871Z,17.20
2018-12-16T16:22:32.284Z,16.60
2018-12-16T16:24:58.729Z,16.30
2018-12-16T16:27:25.123Z,16.30
2018-12-16T16:29:52.110Z,16.80
2018-12-16T16:32:19.211Z,16.90
2018-12-16T16:34:45.657Z,16.90
2018-12-16T16:37:11.924Z,17.10
2018-12-16T16:39:38.308Z,17.10
2018-12-16T16:42:04.729Z,17.20
2018-12-16T16:44:30.974Z,17.30
2018-12-16T16:46:57.387Z,17.30
2018-12-16T16:49:23.666Z,17.30
2018-12-16T16:51:50.069Z,17.40
2018-12-16T16:59:19.605Z,17.30
2018-12-16T17:01:46.066Z,17.30
2018-12-16T17:04:12.487Z,17.10
2018-12-16T17:06:42.027Z,17.30
2018-12-16T17:11:40.855Z,17.30
2018-12-16T17:14:07.227Z,17.30
2018-12-16T17:16:33.668Z,17.50
2018-12-16T17:19:00.136Z,17.50
2018-12-16T17:21:30.003Z,17.50
2018-12-16T17:23:56.440Z,17.50
2018-12-16T17:26:29.792Z,17.50
2018-12-16T17:28:50.145Z,17.50
2018-12-16T17:31:16.589Z,17.50
2018-12-16T17:33:43.050Z,17.70
2018-12-16T17:36:12.531Z,17.70
2018-12-16T17:38:39.059Z,17.80
2018-12-16T17:43:36.917Z,18.00
2018-12-16T17:48:35.972Z,18.00
2018-12-16T17:51:02.455Z,18.00
2018-12-16T17:53:28.787Z,18.00
2018-12-16T17:55:55.329Z,18.00
2018-12-16T17:58:22.446Z,18.40
2018-12-16T18:03:20.467Z,18.30
2018-12-16T18:05:47.922Z,18.20
2018-12-16T18:10:46.540Z,18.30
2018-12-16T18:15:47.955Z,18.30
2018-12-16T18:18:14.367Z,18.50
2018-12-16T18:20:40.824Z,18.50
2018-12-16T18:25:39.149Z,18.50
2018-12-16T18:33:08.469Z,17.30
2018-12-16T18:35:35.926Z,17.40
2018-12-16T18:40:34.536Z,17.40
2018-12-16T18:43:05.888Z,17.40
2018-12-16T18:45:35.895Z,17.40
2018-12-16T18:50:35.926Z,17.20
2018-12-16T18:53:02.996Z,17.10
2018-12-16T18:55:29.990Z,17.00
2018-12-16T18:57:56.371Z,16.90
2018-12-16T19:00:23.399Z,16.80
2018-12-16T19:05:22.621Z,16.70
2018-12-16T19:07:49.090Z,16.60
2018-12-16T19:12:47.085Z,16.50
2018-12-16T19:15:17.960Z,16.40
2018-12-16T19:17:44.227Z,16.40
2018-12-16T19:20:12.064Z,16.40
2018-12-16T19:25:10.468Z,16.30
2018-12-16T19:27:42.021Z,16.20
2018-12-16T19:32:40.400Z,16.20
2018-12-16T19:35:06.674Z,16.10
2018-12-16T19:37:36.009Z,16.10
2018-12-16T19:40:02.358Z,16.10
2018-12-16T19:42:29.896Z,16.10
2018-12-16T19:44:59.966Z,16.00
2018-12-16T19:47:29.883Z,16.00
2018-12-16T19:49:59.980Z,15.90
2018-12-16T19:54:58.187Z,15.90
2018-12-16T19:57:25.412Z,15.90
2018-12-16T19:59:51.715Z,15.80
2018-12-16T20:02:18.117Z,15.80
2018-12-16T20:07:16.465Z,15.70
2018-12-16T20:09:48.039Z,15.80
2018-12-16T20:14:46.017Z,15.60
2018-12-16T20:17:19.315Z,15.60
2018-12-16T20:19:44.427Z,15.60
2018-12-16T20:24:42.613Z,15.60
2018-12-16T20:27:12.206Z,15.50
2018-12-16T20:32:10.153Z,15.50
2018-12-16T20:34:36.542Z,15.50
2018-12-16T20:37:06.058Z,15.50
2018-12-16T20:44:35.579Z,15.30
2018-12-16T20:47:02.008Z,15.30
2018-12-16T20:52:00.418Z,15.30
2018-12-16T20:59:31.130Z,15.30
2018-12-16T21:01:57.409Z,15.30
2018-12-16T21:04:29.971Z,15.30
2018-12-16T21:09:30.054Z,15.20
2018-12-16T21:12:00.129Z,15.10
2018-12-16T21:19:30.083Z,15.20
2018-12-16T21:21:59.997Z,15.10
2018-12-16T21:24:30.124Z,15.00
2018-12-16T21:26:56.551Z,15.00
2018-12-16T21:29:22.986Z,15.10
2018-12-16T21:36:52.310Z,15.10
2018-12-16T21:39:18.758Z,15.10
2018-12-16T21:41:48.074Z,15.00
2018-12-16T21:46:46.935Z,15.00
2018-12-16T21:49:13.293Z,15.00
2018-12-16T21:54:12.110Z,15.00
2018-12-16T22:04:16.075Z,14.90
2018-12-16T22:06:42.541Z,14.80
2018-12-16T22:09:08.928Z,14.90
2018-12-16T22:11:36.188Z,14.90
2018-12-16T22:19:06.159Z,14.90
2018-12-16T22:21:32.563Z,14.80
